Time;durP1;ratioP1;P1;durP2;ratioP2;P2;SDS_P1;SDS_P2;PMS_P1;PMS_P2;Temp;Humidity;BMP_temperature;BMP_pressure;BME280_temperature;BME280_humidity;BME280_pressure;Samples;Min_cycle;Max_cycle;Signal;HPM_P1;HPM_P2
2022/10/19 00:01:08;;;;;;;12.13;2.40;;;10.30;99.90;;;;;;5049822;28;20051;-63
2022/10/19 00:03:35;;;;;;;7.47;2.00;;;10.40;99.90;;;;;;5084219;28;20072;-63
2022/10/19 00:06:29;;;;;;;7.03;1.67;;;10.40;99.90;;;;;;5084262;28;20041;-62
2022/10/19 00:09:02;;;;;;;6.85;2.45;;;10.40;99.90;;;;;;5049701;28;20041;-63
2022/10/19 00:11:28;;;;;;;7.63;1.98;;;10.50;99.90;;;;;;5052040;28;20405;-63
2022/10/19 00:13:55;;;;;;;9.63;1.85;;;10.50;99.90;;;;;;5051806;28;20037;-62
2022/10/19 00:16:22;;;;;;;8.55;1.65;;;10.40;99.90;;;;;;5083485;28;20120;-63
2022/10/19 00:18:48;;;;;;;9.48;2.20;;;10.50;99.90;;;;;;5051816;28;20126;-63
2022/10/19 00:21:16;;;;;;;5.97;1.45;;;10.50;99.90;;;;;;5050665;28;20112;-63
2022/10/19 00:23:42;;;;;;;8.32;1.60;;;10.50;99.90;;;;;;5052183;28;20045;-63
2022/10/19 00:26:08;;;;;;;8.73;2.50;;;10.50;99.90;;;;;;5051443;28;20045;-63
2022/10/19 00:28:35;;;;;;;8.18;2.40;;;10.50;99.90;;;;;;5083106;28;20103;-63
2022/10/19 00:31:06;;;;;;;6.63;1.95;;;10.50;99.90;;;;;;5051513;28;20478;-63
2022/10/19 00:33:32;;;;;;;8.43;1.75;;;10.50;99.90;;;;;;5067123;28;20084;-63
2022/10/19 00:35:58;;;;;;;7.95;1.92;;;10.50;99.90;;;;;;5050779;28;20044;-63
2022/10/19 00:38:24;;;;;;;6.10;1.73;;;10.50;99.90;;;;;;5051783;28;20068;-62
2022/10/19 00:40:50;;;;;;;7.78;2.25;;;10.50;99.90;;;;;;5050504;28;20052;-63
2022/10/19 00:43:18;;;;;;;10.90;2.58;;;10.50;99.90;;;;;;5082975;28;20120;-63
2022/10/19 00:45:43;;;;;;;8.40;2.25;;;10.60;99.90;;;;;;5051954;28;20037;-63
2022/10/19 00:48:14;;;;;;;10.63;2.17;;;10.60;99.90;;;;;;5051647;28;20044;-63
2022/10/19 00:50:41;;;;;;;6.38;2.22;;;10.60;99.90;;;;;;5050108;28;20175;-63
2022/10/19 00:53:07;;;;;;;7.70;2.08;;;10.60;99.90;;;;;;5084051;28;20064;-63
2022/10/19 00:55:33;;;;;;;6.32;1.92;;;10.60;99.90;;;;;;5083880;28;20502;-62
2022/10/19 00:58:01;;;;;;;4.93;1.58;;;10.60;99.90;;;;;;5050528;28;20378;-62
2022/10/19 01:00:27;;;;;;;9.98;1.75;;;10.60;99.90;;;;;;5051363;28;20453;-63
2022/10/19 01:02:53;;;;;;;7.38;1.80;;;10.60;99.90;;;;;;5083592;28;20080;-63
2022/10/19 01:05:19;;;;;;;6.03;1.83;;;10.70;99.90;;;;;;5086449;28;20131;-62
2022/10/19 01:07:44;;;;;;;9.30;2.08;;;10.60;99.90;;;;;;5055392;28;20228;-62
2022/10/19 01:10:11;;;;;;;5.18;1.52;;;10.70;99.90;;;;;;5087364;28;20045;-63
2022/10/19 01:13:13;;;;;;;4.50;1.55;;;10.70;99.90;;;;;;5086803;28;20485;-63
2022/10/19 01:16:00;;;;;;;8.18;2.00;;;10.80;99.90;;;;;;5087461;28;20124;-63
2022/10/19 01:18:43;;;;;;;5.30;1.73;;;10.80;99.90;;;;;;5086890;28;20127;-63
2022/10/19 01:21:22;;;;;;;6.63;1.80;;;10.80;99.90;;;;;;5054941;28;20044;-62
2022/10/19 01:23:54;;;;;;;15.07;2.47;;;10.80;99.90;;;;;;5086972;28;20044;-63
2022/10/19 01:26:57;;;;;;;8.50;2.15;;;10.80;99.90;;;;;;5085813;28;20050;-63
2022/10/19 01:29:51;;;;;;;8.52;1.90;;;10.80;99.90;;;;;;5087236;28;20452;-63
2022/10/19 01:32:28;;;;;;;10.90;2.00;;;10.90;99.90;;;;;;5069107;28;20045;-63
2022/10/19 01:35:11;;;;;;;9.13;2.08;;;10.90;99.90;;;;;;5054435;28;20037;-63
2022/10/19 01:38:03;;;;;;;6.05;1.52;;;10.90;99.90;;;;;;5054682;28;20049;-63
2022/10/19 01:40:52;;;;;;;8.75;2.03;;;10.90;99.90;;;;;;5052165;28;20044;-63
2022/10/19 01:43:40;;;;;;;5.57;1.60;;;10.90;99.90;;;;;;5054313;28;20041;-63
2022/10/19 01:46:12;;;;;;;7.60;1.83;;;10.90;99.90;;;;;;5053559;28;20044;-63
2022/10/19 01:48:43;;;;;;;9.45;2.20;;;10.90;99.90;;;;;;5054428;28;20371;-63
2022/10/19 01:51:19;;;;;;;8.32;1.67;;;10.80;99.90;;;;;;5054516;28;20056;-63
2022/10/19 01:53:52;;;;;;;6.25;1.05;;;10.90;99.90;;;;;;5085701;28;20094;-63
2022/10/19 01:56:22;;;;;;;6.88;1.60;;;10.90;99.90;;;;;;5054188;28;20041;-63
2022/10/19 01:58:50;;;;;;;6.70;1.40;;;10.90;99.90;;;;;;5086763;28;20094;-63
2022/10/19 02:01:18;;;;;;;7.28;2.65;;;11.00;99.90;;;;;;5085331;28;20501;-62
2022/10/19 02:03:45;;;;;;;8.63;2.08;;;11.20;99.90;;;;;;5086937;28;20057;-63
2022/10/19 02:06:12;;;;;;;9.70;2.25;;;11.30;99.90;;;;;;5054327;28;20040;-63
2022/10/19 02:08:45;;;;;;;7.22;1.98;;;11.40;99.90;;;;;;5053339;28;20094;-62
2022/10/19 02:11:11;;;;;;;8.90;2.03;;;11.40;99.90;;;;;;5052708;28;20056;-63
2022/10/19 02:13:38;;;;;;;7.97;2.13;;;11.40;99.90;;;;;;5085519;28;20045;-63
2022/10/19 02:16:09;;;;;;;14.40;2.17;;;11.40;99.90;;;;;;5085063;28;20044;-63
2022/10/19 02:18:41;;;;;;;8.95;1.75;;;11.40;99.90;;;;;;5085960;28;20555;-63
2022/10/19 02:21:08;;;;;;;5.88;1.60;;;11.50;99.90;;;;;;5085102;28;20045;-63
2022/10/19 02:23:34;;;;;;;10.57;1.80;;;11.50;99.90;;;;;;5053531;28;20052;-63
2022/10/19 02:26:00;;;;;;;7.55;2.05;;;11.40;99.90;;;;;;5035523;28;20053;-62
2022/10/19 02:28:27;;;;;;;6.25;1.83;;;11.40;99.90;;;;;;5085135;28;20111;-63
2022/10/19 02:30:53;;;;;;;8.20;2.00;;;11.40;99.90;;;;;;5085684;28;20083;-63
2022/10/19 02:33:19;;;;;;;11.63;2.28;;;11.40;99.90;;;;;;5068874;28;20474;-63
2022/10/19 02:35:45;;;;;;;7.13;1.85;;;11.30;99.90;;;;;;5067918;28;20049;-63
2022/10/19 02:38:14;;;;;;;11.13;1.90;;;11.30;99.90;;;;;;5068805;28;20615;-63
2022/10/19 02:40:46;;;;;;;13.27;2.35;;;11.20;99.90;;;;;;5053468;28;20032;-63
2022/10/19 02:43:18;;;;;;;8.65;2.15;;;11.20;99.90;;;;;;5084733;28;20051;-63
2022/10/19 02:45:55;;;;;;;9.10;2.20;;;11.20;99.90;;;;;;5035682;28;20055;-63
2022/10/19 02:48:23;;;;;;;7.22;1.77;;;11.10;99.90;;;;;;5053192;28;20033;-63
2022/10/19 02:50:50;;;;;;;8.23;2.45;;;11.00;99.90;;;;;;5084603;28;20041;-63
2022/10/19 02:53:16;;;;;;;9.68;1.95;;;10.90;99.90;;;;;;5085074;28;20053;-63
2022/10/19 02:55:42;;;;;;;8.57;1.60;;;10.90;99.90;;;;;;5085545;28;20071;-63
2022/10/19 02:58:08;;;;;;;6.95;1.65;;;10.80;99.90;;;;;;5085394;28;20470;-63
2022/10/19 03:00:34;;;;;;;11.25;2.63;;;10.70;99.90;;;;;;5052958;28;20537;-63
2022/10/19 03:02:59;;;;;;;5.95;1.80;;;10.70;99.90;;;;;;5067629;28;20052;-63
2022/10/19 03:05:25;;;;;;;8.43;2.00;;;10.70;99.90;;;;;;5052802;28;20032;-63
2022/10/19 03:07:51;;;;;;;13.95;2.40;;;10.80;99.90;;;;;;5052513;28;20083;-63
2022/10/19 03:10:16;;;;;;;9.55;2.80;;;10.90;99.90;;;;;;5084282;28;20056;-63
2022/10/19 03:12:42;;;;;;;7.45;1.85;;;10.90;99.90;;;;;;5085113;28;20095;-63
2022/10/19 03:15:09;;;;;;;11.95;2.55;;;10.90;99.90;;;;;;5052679;28;20033;-62
2022/10/19 03:17:35;;;;;;;10.68;2.30;;;10.90;99.90;;;;;;5051776;28;20049;-62
2022/10/19 03:20:01;;;;;;;5.75;1.67;;;10.90;99.90;;;;;;5084858;28;20409;-63
2022/10/19 03:22:26;;;;;;;11.52;2.40;;;10.90;99.90;;;;;;5084606;28;20462;-63
2022/10/19 03:24:52;;;;;;;8.48;1.85;;;10.90;99.90;;;;;;5066937;28;20119;-63
2022/10/19 03:27:18;;;;;;;5.68;1.70;;;10.90;99.90;;;;;;5084396;28;20138;-63
2022/10/19 03:29:43;;;;;;;8.50;2.10;;;10.90;99.90;;;;;;5084942;28;20045;-63
2022/10/19 03:32:09;;;;;;;9.43;2.33;;;10.90;99.90;;;;;;5051658;28;20078;-63
2022/10/19 03:34:34;;;;;;;13.45;1.90;;;10.80;99.90;;;;;;5052259;28;20049;-63
2022/10/19 03:37:00;;;;;;;9.95;1.80;;;10.80;99.90;;;;;;5084612;28;20040;-63
2022/10/19 03:39:26;;;;;;;7.53;1.83;;;10.80;99.90;;;;;;5083603;28;20044;-63
2022/10/19 03:41:51;;;;;;;8.65;1.80;;;10.80;99.90;;;;;;5084766;28;20052;-63
2022/10/19 03:44:17;;;;;;;10.45;2.20;;;10.80;99.90;;;;;;5084447;28;20111;-63
2022/10/19 03:46:43;;;;;;;9.68;2.28;;;10.80;99.90;;;;;;5083908;28;20045;-63
2022/10/19 03:49:10;;;;;;;8.73;2.25;;;10.70;99.90;;;;;;5052063;28;20033;-63
2022/10/19 03:51:36;;;;;;;5.30;1.75;;;10.70;99.90;;;;;;5084092;28;20048;-63
2022/10/19 03:54:05;;;;;;;10.32;2.35;;;10.70;99.90;;;;;;5050060;28;20390;-63
2022/10/19 03:56:32;;;;;;;13.40;2.50;;;10.70;99.90;;;;;;5050969;28;20115;-63
2022/10/19 03:59:00;;;;;;;15.10;3.22;;;10.60;99.90;;;;;;5051961;28;20036;-63
2022/10/19 04:01:38;;;;;;;11.45;2.42;;;10.60;99.90;;;;;;5084249;28;20040;-62
2022/10/19 04:04:08;;;;;;;10.30;2.05;;;10.50;99.90;;;;;;5067884;28;20119;-63
2022/10/19 04:06:36;;;;;;;9.70;2.22;;;10.50;99.90;;;;;;5049901;28;20047;-63
2022/10/19 04:09:04;;;;;;;10.05;2.28;;;10.40;99.90;;;;;;5084210;28;20041;-63
2022/10/19 04:11:32;;;;;;;12.85;2.95;;;10.30;99.90;;;;;;5084467;28;20425;-63
2022/10/19 04:13:58;;;;;;;9.18;2.35;;;10.20;99.90;;;;;;5049880;28;20055;-63
2022/10/19 04:16:26;;;;;;;7.85;2.15;;;10.20;99.90;;;;;;5050678;28;20117;-63
2022/10/19 04:18:51;;;;;;;8.70;2.00;;;10.10;99.90;;;;;;5050272;28;20116;-63
2022/10/19 04:21:26;;;;;;;10.65;2.95;;;10.00;99.90;;;;;;5050645;28;20128;-63
2022/10/19 04:23:56;;;;;;;10.10;2.17;;;10.00;99.90;;;;;;5051907;28;20056;-62
2022/10/19 04:26:21;;;;;;;10.00;2.10;;;10.00;99.90;;;;;;5050424;28;20080;-63
2022/10/19 04:28:47;;;;;;;9.30;1.80;;;10.00;99.90;;;;;;5083225;28;20469;-63
2022/10/19 04:31:13;;;;;;;14.65;2.08;;;10.00;99.90;;;;;;5083880;28;20053;-63
2022/10/19 04:33:39;;;;;;;7.40;1.90;;;10.00;99.90;;;;;;5051944;28;20074;-63
2022/10/19 04:36:08;;;;;;;7.65;1.70;;;9.90;99.90;;;;;;5049677;28;20060;-62
2022/10/19 04:38:34;;;;;;;11.40;2.40;;;9.90;99.90;;;;;;5085070;28;20182;-62
2022/10/19 04:41:11;;;;;;;12.45;2.17;;;9.80;99.90;;;;;;5087680;28;20111;-63
2022/10/19 04:43:38;;;;;;;8.30;2.33;;;9.80;99.90;;;;;;5054027;28;20045;-63
2022/10/19 04:46:09;;;;;;;8.45;2.55;;;9.80;99.90;;;;;;5055282;28;20082;-62
2022/10/19 04:48:35;;;;;;;9.75;2.85;;;9.80;99.90;;;;;;5053310;28;20049;-63
2022/10/19 04:51:02;;;;;;;9.13;1.88;;;9.70;99.90;;;;;;5087805;28;20371;-62
2022/10/19 04:53:28;;;;;;;11.75;3.08;;;9.80;99.90;;;;;;5087422;28;20052;-62
2022/10/19 04:55:54;;;;;;;13.70;2.38;;;9.70;99.90;;;;;;5054445;28;20041;-62
2022/10/19 04:58:20;;;;;;;10.27;2.35;;;9.70;99.90;;;;;;5055081;28;20551;-62
2022/10/19 05:00:45;;;;;;;7.60;2.03;;;9.80;99.90;;;;;;5055203;28;20063;-63
2022/10/19 05:03:11;;;;;;;13.95;5.60;;;9.80;99.90;;;;;;5054469;28;20045;-63
2022/10/19 05:05:37;;;;;;;11.05;3.88;;;9.70;99.90;;;;;;5055468;28;20033;-62
2022/10/19 05:08:03;;;;;;;16.33;6.60;;;9.70;99.90;;;;;;5055044;28;20033;-62
2022/10/19 05:10:29;;;;;;;15.73;4.18;;;9.70;99.90;;;;;;5054103;28;20060;-63
2022/10/19 05:12:55;;;;;;;14.80;5.28;;;9.80;99.90;;;;;;5087217;28;20045;-62
2022/10/19 05:15:20;;;;;;;13.27;4.35;;;9.80;99.90;;;;;;5087382;28;20075;-63
2022/10/19 05:17:46;;;;;;;14.63;4.50;;;9.80;99.90;;;;;;5054154;28;20039;-63
2022/10/19 05:20:12;;;;;;;11.13;3.05;;;9.80;99.90;;;;;;5054592;28;20490;-63
2022/10/19 05:22:38;;;;;;;11.00;3.00;;;9.90;99.90;;;;;;5055212;28;20044;-63
2022/10/19 05:25:05;;;;;;;12.48;3.13;;;9.90;99.90;;;;;;5053829;28;20098;-63
2022/10/19 05:27:31;;;;;;;9.32;2.72;;;9.90;99.90;;;;;;5086827;28;20056;-62
2022/10/19 05:29:56;;;;;;;7.82;2.15;;;9.90;99.90;;;;;;5054787;28;20041;-62
2022/10/19 05:32:22;;;;;;;8.88;2.53;;;9.90;99.90;;;;;;5052671;28;20059;-63
2022/10/19 05:34:48;;;;;;;7.30;1.60;;;9.90;99.90;;;;;;5087032;28;20091;-62
2022/10/19 05:37:15;;;;;;;8.40;4.18;;;9.90;99.90;;;;;;5054577;28;20387;-63
2022/10/19 05:39:41;;;;;;;10.60;2.50;;;9.90;99.90;;;;;;5053905;28;20428;-62
2022/10/19 05:42:06;;;;;;;9.60;2.67;;;9.90;99.90;;;;;;5054309;28;20037;-63
2022/10/19 05:44:32;;;;;;;14.20;5.75;;;9.90;99.90;;;;;;5053609;28;20540;-63
2022/10/19 05:46:58;;;;;;;14.55;3.85;;;10.00;99.90;;;;;;5086534;28;20460;-62
2022/10/19 05:49:23;;;;;;;17.38;5.47;;;9.90;99.90;;;;;;5053509;28;20047;-62
2022/10/19 05:51:49;;;;;;;16.83;8.88;;;10.00;99.90;;;;;;5052659;28;20120;-62
2022/10/19 05:54:15;;;;;;;18.27;6.47;;;10.00;99.90;;;;;;5054154;28;20490;-62
2022/10/19 05:56:41;;;;;;;8.75;2.22;;;10.10;99.90;;;;;;5086593;28;20124;-62
2022/10/19 05:59:09;;;;;;;7.90;1.77;;;10.00;99.90;;;;;;5052083;28;20565;-63
2022/10/19 06:01:35;;;;;;;12.38;3.05;;;10.10;99.90;;;;;;5053876;28;20124;-62
2022/10/19 06:04:02;;;;;;;12.45;3.00;;;10.10;99.90;;;;;;5054057;28;20040;-63
2022/10/19 06:06:29;;;;;;;12.32;2.50;;;10.10;99.90;;;;;;5083899;28;20076;-62
2022/10/19 06:08:57;;;;;;;9.45;2.40;;;10.10;99.90;;;;;;5052409;28;20045;-62
2022/10/19 06:11:28;;;;;;;8.13;2.22;;;10.10;99.90;;;;;;5052624;28;20124;-62
2022/10/19 06:13:56;;;;;;;25.02;5.90;;;10.20;99.90;;;;;;5051835;28;20049;-63
2022/10/19 06:16:24;;;;;;;48.85;28.13;;;10.10;99.90;;;;;;5053634;28;20044;-62
2022/10/19 06:18:51;;;;;;;25.33;14.35;;;10.20;99.90;;;;;;5052742;28;20492;-62
2022/10/19 06:21:18;;;;;;;34.33;20.92;;;10.20;99.90;;;;;;5052707;28;20045;-62
2022/10/19 06:23:49;;;;;;;37.88;23.67;;;10.20;99.90;;;;;;5052558;28;20064;-62
2022/10/19 06:26:14;;;;;;;31.75;18.58;;;10.20;99.90;;;;;;5053454;28;20444;-62
2022/10/19 06:28:42;;;;;;;17.58;8.07;;;10.20;99.90;;;;;;5049290;28;20053;-62
2022/10/19 06:31:08;;;;;;;14.80;6.88;;;10.20;99.90;;;;;;5052185;28;20040;-62
2022/10/19 06:33:34;;;;;;;32.85;20.17;;;10.30;99.90;;;;;;5033796;28;20041;-62
2022/10/19 06:36:11;;;;;;;24.38;15.38;;;10.30;99.90;;;;;;5029361;28;20360;-62
2022/10/19 06:38:37;;;;;;;12.77;5.50;;;10.40;99.90;;;;;;5015397;28;20051;-62
2022/10/19 06:41:03;;;;;;;17.95;3.85;;;10.40;99.90;;;;;;5049528;28;20041;-63
2022/10/19 06:43:30;;;;;;;19.23;6.80;;;10.50;99.90;;;;;;5050353;28;20448;-63
2022/10/19 06:45:56;;;;;;;39.08;20.95;;;10.40;99.90;;;;;;5049731;28;20535;-63
2022/10/19 06:48:22;;;;;;;18.15;8.93;;;10.50;99.90;;;;;;5049293;28;20099;-63
2022/10/19 06:50:59;;;;;;;12.52;4.22;;;10.50;99.90;;;;;;5050053;28;20106;-63
2022/10/19 06:53:26;;;;;;;14.20;5.68;;;10.50;99.90;;;;;;5032331;28;20041;-63
2022/10/19 06:55:52;;;;;;;13.70;4.57;;;10.50;99.90;;;;;;5049030;28;20477;-63
2022/10/19 06:58:18;;;;;;;11.48;2.85;;;10.50;99.90;;;;;;5050058;28;20045;-64
2022/10/19 07:00:44;;;;;;;10.75;3.25;;;10.60;99.90;;;;;;5050377;28;20040;-64
2022/10/19 07:03:09;;;;;;;10.15;2.83;;;10.60;99.90;;;;;;5049542;28;20041;-63
2022/10/19 07:05:35;;;;;;;20.05;10.70;;;10.70;99.90;;;;;;5049888;28;20120;-63
2022/10/19 07:08:01;;;;;;;9.43;4.22;;;10.80;99.90;;;;;;5049674;28;20122;-63
2022/10/19 07:10:27;;;;;;;12.73;3.50;;;10.80;99.90;;;;;;5049203;28;20123;-63
2022/10/19 07:12:55;;;;;;;12.13;3.45;;;10.80;99.90;;;;;;5048431;28;20423;-63
2022/10/19 07:15:21;;;;;;;10.20;3.63;;;10.90;99.90;;;;;;5047802;28;20432;-63
2022/10/19 07:17:47;;;;;;;9.57;3.38;;;10.90;99.90;;;;;;5047787;28;20029;-63
2022/10/19 07:20:12;;;;;;;19.38;6.00;;;10.90;99.90;;;;;;5048487;28;20032;-63
2022/10/19 07:22:39;;;;;;;15.88;5.22;;;11.00;99.90;;;;;;5049861;28;20043;-63
2022/10/19 07:25:05;;;;;;;14.18;5.70;;;11.10;99.90;;;;;;5081177;28;20485;-63
2022/10/19 07:27:31;;;;;;;12.35;4.18;;;11.00;99.90;;;;;;5050425;28;20071;-62
2022/10/19 07:29:57;;;;;;;9.30;3.85;;;11.10;99.90;;;;;;5049894;28;20052;-62
2022/10/19 07:32:22;;;;;;;10.77;3.72;;;11.10;99.90;;;;;;5050880;28;20041;-62
2022/10/19 07:34:48;;;;;;;10.13;3.22;;;11.10;99.90;;;;;;5049484;28;20040;-62
2022/10/19 07:37:13;;;;;;;15.07;4.10;;;11.20;99.90;;;;;;5049768;28;20141;-62
2022/10/19 07:39:39;;;;;;;12.75;3.92;;;11.30;99.90;;;;;;5066494;28;20049;-62
2022/10/19 07:42:05;;;;;;;10.65;3.22;;;11.30;99.90;;;;;;5052146;28;20036;-62
2022/10/19 07:44:30;;;;;;;16.60;3.15;;;11.40;99.90;;;;;;5051423;28;20505;-61
2022/10/19 07:46:56;;;;;;;15.27;3.45;;;11.40;99.90;;;;;;5050438;28;20061;-62
2022/10/19 07:49:22;;;;;;;10.57;2.88;;;11.50;99.90;;;;;;5051627;28;20490;-62
2022/10/19 07:51:52;;;;;;;11.75;2.95;;;11.50;99.90;;;;;;5049921;28;20121;-62
2022/10/19 07:54:18;;;;;;;8.95;3.13;;;11.60;99.90;;;;;;5050642;28;20037;-62
2022/10/19 07:56:44;;;;;;;9.20;1.95;;;11.70;99.90;;;;;;5084621;28;20037;-62
2022/10/19 07:59:09;;;;;;;7.25;1.70;;;11.70;99.90;;;;;;5050800;28;20504;-61
2022/10/19 08:01:42;;;;;;;10.90;2.33;;;11.80;99.90;;;;;;5050442;28;20052;-61
2022/10/19 08:04:08;;;;;;;9.15;2.58;;;11.80;99.90;;;;;;5050485;28;20064;-61
2022/10/19 08:06:35;;;;;;;11.23;2.58;;;11.80;99.90;;;;;;5033229;28;20724;-61
2022/10/19 08:09:01;;;;;;;7.32;1.75;;;11.80;99.90;;;;;;5050043;28;20116;-61
2022/10/19 08:11:29;;;;;;;5.25;1.88;;;11.80;99.90;;;;;;5083787;28;20124;-61
2022/10/19 08:13:57;;;;;;;9.00;2.25;;;11.80;99.90;;;;;;5052527;28;20183;-61
2022/10/19 08:16:44;;;;;;;9.93;1.73;;;11.90;99.90;;;;;;5054612;28;20432;-61
2022/10/19 08:19:14;;;;;;;7.20;1.70;;;11.90;99.90;;;;;;5056001;28;20037;-62
2022/10/19 08:21:43;;;;;;;9.48;2.10;;;11.90;99.90;;;;;;5054203;28;20049;-61
2022/10/19 08:24:10;;;;;;;7.68;1.80;;;11.90;99.90;;;;;;5053371;28;20048;-62
2022/10/19 08:26:37;;;;;;;8.65;1.40;;;11.90;99.90;;;;;;5054211;28;20063;-62
2022/10/19 08:29:06;;;;;;;7.85;1.70;;;12.00;99.90;;;;;;5054560;28;20056;-61
2022/10/19 08:31:32;;;;;;;7.55;1.77;;;12.00;99.90;;;;;;5054193;28;20049;-61
2022/10/19 08:33:58;;;;;;;4.60;1.73;;;12.00;99.90;;;;;;5054514;28;20120;-62
2022/10/19 08:36:24;;;;;;;10.50;2.13;;;12.10;99.90;;;;;;5054545;28;20469;-62
2022/10/19 08:38:50;;;;;;;9.48;1.77;;;12.10;99.90;;;;;;5053759;28;20041;-62
2022/10/19 08:41:35;;;;;;;9.93;2.10;;;12.10;99.90;;;;;;5052480;28;20040;-62
2022/10/19 08:44:22;;;;;;;15.25;5.78;;;12.20;99.90;;;;;;5053824;28;20041;-62
2022/10/19 08:47:00;;;;;;;13.18;5.78;;;12.20;99.90;;;;;;5054595;28;20033;-62
2022/10/19 08:49:29;;;;;;;22.83;12.38;;;12.20;99.90;;;;;;5051755;28;20037;-62
2022/10/19 08:52:00;;;;;;;38.00;20.67;;;12.20;99.90;;;;;;5035802;28;20114;-61
2022/10/19 08:54:54;;;;;;;16.17;10.77;;;12.20;99.90;;;;;;5053484;28;20049;-62
2022/10/19 08:57:45;;;;;;;13.52;7.13;;;12.20;99.90;;;;;;5030102;28;20083;-62
2022/10/19 09:00:32;;;;;;;14.88;6.00;;;12.30;99.90;;;;;;5053589;28;20095;-62
2022/10/19 09:03:19;;;;;;;10.45;3.50;;;12.30;99.90;;;;;;5052196;28;20509;-62
2022/10/19 09:06:01;;;;;;;10.77;4.68;;;12.30;99.90;;;;;;5055172;28;20040;-62
2022/10/19 09:08:27;;;;;;;8.10;3.58;;;12.30;99.90;;;;;;5053329;28;20045;-63
2022/10/19 09:10:54;;;;;;;6.28;2.83;;;12.30;99.90;;;;;;5054104;28;20485;-63
2022/10/19 09:13:48;;;;;;;10.32;2.70;;;12.30;99.90;;;;;;5054868;28;20506;-63
2022/10/19 09:16:17;;;;;;;10.07;2.20;;;12.30;99.90;;;;;;5051530;28;20049;-63
2022/10/19 09:18:45;;;;;;;8.80;2.75;;;12.40;99.90;;;;;;5052731;28;20047;-63
2022/10/19 09:21:26;;;;;;;11.15;3.38;;;12.40;99.90;;;;;;5053369;28;20116;-63
2022/10/19 09:24:21;;;;;;;7.78;1.95;;;12.40;99.90;;;;;;5050870;28;20049;-63
2022/10/19 09:26:54;;;;;;;9.05;2.60;;;12.50;99.90;;;;;;5043539;28;20045;-64
2022/10/19 09:29:23;;;;;;;10.70;2.10;;;12.50;99.90;;;;;;5049216;28;20253;-63
2022/10/19 09:31:54;;;;;;;5.57;1.70;;;12.50;99.90;;;;;;5047729;28;20083;-63
2022/10/19 09:34:27;;;;;;;14.63;1.83;;;12.50;99.90;;;;;;5050452;28;20041;-63
2022/10/19 09:36:56;;;;;;;10.68;5.05;;;12.50;99.90;;;;;;5049852;28;20041;-63
2022/10/19 09:39:23;;;;;;;16.85;5.50;;;12.50;99.90;;;;;;5048667;28;20098;-63
2022/10/19 09:41:55;;;;;;;9.70;2.72;;;12.60;99.90;;;;;;5049969;28;20041;-63
2022/10/19 09:44:23;;;;;;;17.60;11.65;;;12.60;99.90;;;;;;5049160;28;20064;-63
2022/10/19 09:46:53;;;;;;;10.85;4.88;;;12.70;99.90;;;;;;5033709;28;20086;-63
2022/10/19 09:49:42;;;;;;;11.45;3.88;;;12.70;99.90;;;;;;5049525;28;20099;-63
2022/10/19 09:52:32;;;;;;;12.05;10.38;;;12.70;99.90;;;;;;5047411;28;20552;-63
2022/10/19 09:55:13;;;;;;;11.80;3.03;;;12.70;99.90;;;;;;5035979;28;20037;-63
2022/10/19 09:57:48;;;;;;;8.00;3.35;;;12.70;99.90;;;;;;5051687;28;20116;-63
2022/10/19 10:00:29;;;;;;;15.02;3.70;;;12.70;99.90;;;;;;5050502;28;20047;-63
2022/10/19 10:02:55;;;;;;;12.88;3.63;;;12.80;99.90;;;;;;5043165;28;20063;-63
2022/10/19 10:05:35;;;;;;;8.95;3.40;;;12.80;99.90;;;;;;5048222;28;20045;-63
2022/10/19 10:08:03;;;;;;;11.18;2.92;;;12.80;99.90;;;;;;5049860;28;20056;-63
2022/10/19 10:10:38;;;;;;;7.90;2.15;;;12.90;99.90;;;;;;5049737;28;20505;-63
2022/10/19 10:13:04;;;;;;;9.70;2.38;;;12.90;99.90;;;;;;5029807;28;20076;-63
2022/10/19 10:15:42;;;;;;;8.82;2.10;;;13.00;99.90;;;;;;5050765;28;20461;-63
2022/10/19 10:18:15;;;;;;;8.63;2.13;;;13.00;99.90;;;;;;5049545;28;20055;-63
2022/10/19 10:20:57;;;;;;;9.13;2.15;;;13.00;99.90;;;;;;5050102;28;20479;-63
2022/10/19 10:23:25;;;;;;;7.35;1.75;;;13.10;99.90;;;;;;5049188;28;20080;-63
2022/10/19 10:25:55;;;;;;;7.63;2.58;;;13.10;99.90;;;;;;5048694;28;20064;-63
2022/10/19 10:28:24;;;;;;;9.52;4.63;;;13.10;99.90;;;;;;5046281;28;20404;-63
2022/10/19 10:30:58;;;;;;;18.05;7.65;;;13.00;99.90;;;;;;5048773;28;20051;-63
2022/10/19 10:33:27;;;;;;;17.17;14.43;;;13.00;99.90;;;;;;5048077;28;20099;-63
2022/10/19 10:35:56;;;;;;;15.27;9.93;;;12.90;99.90;;;;;;5031491;28;20511;-63
2022/10/19 10:38:30;;;;;;;12.27;8.38;;;12.90;99.90;;;;;;5047941;28;20040;-62
2022/10/19 10:41:00;;;;;;;9.35;3.70;;;12.90;99.90;;;;;;5031568;28;20029;-63
2022/10/19 10:43:45;;;;;;;9.18;2.85;;;13.00;99.90;;;;;;5051166;28;20037;-63
2022/10/19 10:46:18;;;;;;;12.32;2.95;;;13.00;99.90;;;;;;5053413;28;20405;-62
2022/10/19 10:48:52;;;;;;;9.77;4.40;;;13.00;99.90;;;;;;5052176;28;20043;-63
2022/10/19 10:51:24;;;;;;;8.55;2.20;;;13.10;99.90;;;;;;5051550;28;20081;-62
2022/10/19 10:53:49;;;;;;;8.77;2.22;;;13.10;99.90;;;;;;5053154;28;20119;-62
2022/10/19 10:56:20;;;;;;;8.93;2.45;;;13.00;99.90;;;;;;5083146;28;20123;-63
2022/10/19 10:58:52;;;;;;;12.25;2.17;;;13.00;99.90;;;;;;5084758;28;20463;-62
2022/10/19 11:01:22;;;;;;;13.50;2.42;;;13.10;99.90;;;;;;5049101;28;20482;-62
2022/10/19 11:04:00;;;;;;;6.35;2.00;;;13.10;99.90;;;;;;5050269;28;20429;-62
2022/10/19 11:06:26;;;;;;;7.20;2.30;;;13.10;99.90;;;;;;5066226;28;20095;-62
2022/10/19 11:09:06;;;;;;;12.70;4.18;;;13.10;99.90;;;;;;5051700;28;20029;-62
2022/10/19 11:11:43;;;;;;;6.53;2.35;;;13.10;99.90;;;;;;5052384;28;20094;-62
2022/10/19 11:14:28;;;;;;;14.05;5.18;;;13.20;99.90;;;;;;5052227;28;20424;-62
2022/10/19 11:16:56;;;;;;;15.00;6.70;;;13.20;99.90;;;;;;5051905;28;20120;-62
2022/10/19 11:19:38;;;;;;;12.57;6.63;;;13.10;99.90;;;;;;5052272;28;20037;-62
2022/10/19 11:22:25;;;;;;;7.88;2.22;;;13.10;99.90;;;;;;5051572;28;20045;-62
2022/10/19 11:25:15;;;;;;;7.35;2.85;;;13.00;99.90;;;;;;5052522;28;20120;-62
2022/10/19 11:27:52;;;;;;;13.15;4.93;;;13.00;99.90;;;;;;5034876;28;20049;-62
2022/10/19 11:30:23;;;;;;;12.07;4.85;;;12.90;99.90;;;;;;5050571;28;20144;-62
2022/10/19 11:33:04;;;;;;;9.73;3.08;;;13.00;99.90;;;;;;5051145;28;20049;-62
2022/10/19 11:35:38;;;;;;;9.68;3.65;;;13.00;99.90;;;;;;5051055;28;20045;-62
2022/10/19 11:38:39;;;;;;;12.57;5.20;;;13.10;99.90;;;;;;5051465;28;20680;-62
2022/10/19 11:41:30;;;;;;;16.60;7.35;;;13.30;99.90;;;;;;5051030;28;20076;-62
2022/10/19 11:44:14;;;;;;;15.90;5.03;;;13.40;99.90;;;;;;5022398;28;20049;-62
2022/10/19 11:47:00;;;;;;;21.83;13.60;;;13.50;99.90;;;;;;5051144;28;20037;-62
2022/10/19 11:49:58;;;;;;;13.13;4.53;;;13.50;99.90;;;;;;5050729;28;20394;-62
2022/10/19 11:52:36;;;;;;;13.10;5.57;;;13.50;99.90;;;;;;5051309;28;20047;-62
2022/10/19 11:55:32;;;;;;;8.00;3.78;;;13.50;99.90;;;;;;5050648;28;20481;-62
2022/10/19 11:58:06;;;;;;;;;;;13.40;99.90;;;;;;5050575;28;20448;-62
2022/10/19 12:01:11;;;;;;;12.00;6.37;;;13.30;99.90;;;;;;5050801;28;20336;-62
2022/10/19 12:04:14;;;;;;;17.38;9.20;;;13.30;99.90;;;;;;5052121;28;20060;-62
2022/10/19 12:06:58;;;;;;;25.00;14.43;;;13.20;99.90;;;;;;5050051;28;20037;-62
2022/10/19 12:09:56;;;;;;;31.85;18.42;;;13.10;99.90;;;;;;5050634;28;20037;-62
2022/10/19 12:12:25;;;;;;;26.80;13.00;;;13.10;99.90;;;;;;5048768;28;20438;-62
2022/10/19 12:14:58;;;;;;;22.73;11.20;;;13.00;99.90;;;;;;5051981;28;20068;-62
2022/10/19 12:17:30;;;;;;;26.58;13.25;;;13.00;99.90;;;;;;5050741;28;20052;-62
2022/10/19 12:20:05;;;;;;;16.77;7.93;;;13.00;99.90;;;;;;5049653;28;20069;-62
2022/10/19 12:22:36;;;;;;;34.35;14.77;;;13.10;99.90;;;;;;5051948;28;20091;-62
2022/10/19 12:25:02;;;;;;;19.75;9.15;;;13.10;99.90;;;;;;5051935;28;20417;-62
2022/10/19 12:27:34;;;;;;;15.93;7.35;;;13.10;99.90;;;;;;5050720;28;20048;-62
2022/10/19 12:30:17;;;;;;;16.38;7.50;;;13.10;99.90;;;;;;5050566;28;20049;-62
2022/10/19 12:32:54;;;;;;;25.45;10.13;;;13.20;99.90;;;;;;5050195;28;20061;-62
2022/10/19 12:35:48;;;;;;;12.25;6.63;;;13.30;99.90;;;;;;5033894;28;20095;-62
2022/10/19 12:38:44;;;;;;;11.82;3.53;;;13.30;99.90;;;;;;5025134;28;20064;-62
2022/10/19 12:41:25;;;;;;;12.25;4.05;;;13.50;99.90;;;;;;5049737;28;20045;-62
2022/10/19 12:44:41;;;;;;;104.70;53.33;;;13.50;99.90;;;;;;5051845;28;20037;-62
2022/10/19 12:47:21;;;;;;;21.50;11.20;;;13.50;99.90;;;;;;5008934;28;20076;-62
2022/10/19 12:49:48;;;;;;;10.18;6.00;;;13.60;99.90;;;;;;5044022;28;20514;-62
2022/10/19 12:52:32;;;;;;;13.05;7.63;;;13.50;99.90;;;;;;5051592;28;20056;-62
2022/10/19 12:55:10;;;;;;;10.05;2.13;;;13.50;99.90;;;;;;5049323;28;20087;-62
2022/10/19 12:57:38;;;;;;;8.73;2.30;;;13.40;99.90;;;;;;5050197;28;20041;-62
2022/10/19 13:00:18;;;;;;;5.72;2.17;;;13.40;99.90;;;;;;5052095;28;20041;-62
2022/10/19 13:02:46;;;;;;;7.70;1.88;;;13.40;99.90;;;;;;5053441;28;20362;-62
2022/10/19 13:05:23;;;;;;;10.93;2.20;;;13.30;99.90;;;;;;5055127;28;20063;-62